createdAt,value
2019-05-10T00:01:20.868Z,22.47
2019-05-10T00:03:54.697Z,24.07
2019-05-10T00:06:34.137Z,23.98
2019-05-10T00:09:10.952Z,23.18
2019-05-10T00:11:48.439Z,23.27
2019-05-10T00:14:19.913Z,23.50
2019-05-10T00:16:54.208Z,22.93
2019-05-10T00:19:28.287Z,22.97
2019-05-10T00:22:02.060Z,22.77
2019-05-10T00:24:35.924Z,23.53
2019-05-10T00:27:11.179Z,23.03
2019-05-10T00:29:44.986Z,22.87
2019-05-10T00:32:20.191Z,22.13
2019-05-10T00:34:54.200Z,23.57
2019-05-10T00:37:29.572Z,22.00
2019-05-10T00:40:06.035Z,21.50
2019-05-10T00:42:40.563Z,23.33
2019-05-10T00:45:15.945Z,22.13
2019-05-10T00:47:50.865Z,22.40
2019-05-10T00:50:29.058Z,23.40
2019-05-10T00:53:05.248Z,22.10
2019-05-10T00:55:40.496Z,23.13
2019-05-10T00:58:16.157Z,23.60
2019-05-10T01:00:54.989Z,22.83
2019-05-10T01:03:33.427Z,23.30
2019-05-10T01:06:07.258Z,23.20
2019-05-10T01:08:45.768Z,23.77
2019-05-10T01:11:21.529Z,23.23
2019-05-10T01:13:57.074Z,22.53
2019-05-10T01:16:35.560Z,22.93
2019-05-10T01:19:11.825Z,28.10
2019-05-10T01:21:47.632Z,26.68
2019-05-10T01:24:22.371Z,28.10
2019-05-10T01:26:57.884Z,27.58
2019-05-10T01:29:32.934Z,29.30
2019-05-10T01:32:13.981Z,29.35
2019-05-10T01:34:47.765Z,29.40
2019-05-10T01:37:27.145Z,30.08
2019-05-10T01:40:09.006Z,29.75
2019-05-10T01:42:44.678Z,30.33
2019-05-10T01:45:24.889Z,30.50
2019-05-10T01:48:00.458Z,30.48
2019-05-10T01:50:37.427Z,31.60
2019-05-10T01:53:11.418Z,31.00
2019-05-10T01:55:52.190Z,29.57
2019-05-10T01:58:22.239Z,30.13
2019-05-10T02:00:57.113Z,31.20
2019-05-10T02:03:31.320Z,28.67
2019-05-10T02:06:05.497Z,30.63
2019-05-10T02:08:39.554Z,31.33
2019-05-10T02:11:13.727Z,30.07
2019-05-10T02:13:49.784Z,29.80
2019-05-10T02:16:25.945Z,30.72
2019-05-10T02:19:00.477Z,30.00
2019-05-10T02:21:35.099Z,30.52
2019-05-10T02:24:10.059Z,29.50
2019-05-10T02:26:44.387Z,31.57
2019-05-10T02:29:19.970Z,31.20
2019-05-10T02:31:53.767Z,31.30
2019-05-10T02:34:29.206Z,30.23
2019-05-10T02:37:03.333Z,30.97
2019-05-10T02:39:37.617Z,30.77
2019-05-10T02:42:19.301Z,29.07
2019-05-10T02:44:52.325Z,30.23
2019-05-10T02:47:27.848Z,28.67
2019-05-10T02:50:02.789Z,29.50
2019-05-10T02:52:37.571Z,29.70
2019-05-10T02:55:13.575Z,28.03
2019-05-10T02:57:50.397Z,29.73
2019-05-10T03:00:26.023Z,28.03
2019-05-10T03:03:02.321Z,29.02
2019-05-10T03:05:39.754Z,27.52
2019-05-10T03:08:15.464Z,27.00
2019-05-10T03:10:57.709Z,25.47
2019-05-10T03:13:34.737Z,25.60
2019-05-10T03:16:09.102Z,25.02
2019-05-10T03:18:45.103Z,24.60
2019-05-10T03:21:20.670Z,25.97
2019-05-10T03:23:57.478Z,26.77
2019-05-10T03:26:50.170Z,26.57
2019-05-10T03:29:18.982Z,25.27
2019-05-10T03:31:52.559Z,24.93
2019-05-10T03:34:26.855Z,25.00
2019-05-10T03:37:09.072Z,24.77
2019-05-10T03:39:43.173Z,24.82
2019-05-10T03:42:18.820Z,24.93
2019-05-10T03:44:54.586Z,24.80
2019-05-10T03:47:28.315Z,25.03
2019-05-10T03:50:03.682Z,24.77
2019-05-10T03:52:38.745Z,24.70
2019-05-10T03:55:29.533Z,23.80
2019-05-10T03:58:03.879Z,23.80
2019-05-10T04:00:37.624Z,23.18
2019-05-10T04:03:12.972Z,23.95
2019-05-10T04:05:47.536Z,22.15
2019-05-10T04:08:21.506Z,22.17
2019-05-10T04:10:55.578Z,22.97
2019-05-10T04:13:29.842Z,22.97
2019-05-10T04:16:03.646Z,22.95
2019-05-10T04:18:39.483Z,26.07
2019-05-10T04:21:14.138Z,25.00
2019-05-10T04:23:47.991Z,24.47
2019-05-10T04:26:25.141Z,23.83
2019-05-10T04:29:01.576Z,23.90
2019-05-10T04:31:48.250Z,22.77
2019-05-10T04:34:22.816Z,23.13
2019-05-10T04:36:57.410Z,21.77
2019-05-10T04:39:34.021Z,21.00
2019-05-10T04:42:09.578Z,21.57
2019-05-10T04:44:53.141Z,21.05
2019-05-10T04:47:24.819Z,23.00
2019-05-10T04:49:58.391Z,22.87
2019-05-10T04:52:32.181Z,23.37
2019-05-10T04:55:07.115Z,22.42
2019-05-10T04:57:50.633Z,22.52
2019-05-10T05:00:20.517Z,21.63
2019-05-10T05:02:56.197Z,21.90
2019-05-10T05:05:30.381Z,22.20
2019-05-10T05:08:07.632Z,20.43
2019-05-10T05:10:41.687Z,20.60
2019-05-10T05:13:16.231Z,20.77
2019-05-10T05:15:51.444Z,20.60
2019-05-10T05:18:27.034Z,19.87
2019-05-10T05:21:04.567Z,19.60
2019-05-10T05:23:39.126Z,19.05
2019-05-10T05:26:14.087Z,18.87
2019-05-10T05:28:48.381Z,17.83
2019-05-10T05:31:26.823Z,19.23
2019-05-10T05:34:04.817Z,19.17
2019-05-10T05:36:36.600Z,18.20
2019-05-10T05:39:10.931Z,16.90
2019-05-10T05:41:49.129Z,17.17
2019-05-10T05:44:20.373Z,17.57
2019-05-10T05:46:54.286Z,17.60
2019-05-10T05:49:27.813Z,17.03
2019-05-10T05:52:03.062Z,18.15
2019-05-10T05:54:36.920Z,17.50
2019-05-10T05:57:10.676Z,17.93
2019-05-10T05:59:44.564Z,17.77
2019-05-10T06:02:27.927Z,17.45
2019-05-10T06:05:02.337Z,17.23
2019-05-10T06:07:37.978Z,17.37
2019-05-10T06:10:16.924Z,16.73
2019-05-10T06:12:57.445Z,17.80
2019-05-10T06:15:32.402Z,18.60
2019-05-10T06:18:09.569Z,17.10
2019-05-10T06:23:29.273Z,16.10
2019-05-10T06:26:00.226Z,15.80
2019-05-10T06:28:57.369Z,16.10
2019-05-10T06:31:11.335Z,15.93
2019-05-10T06:33:46.805Z,15.28
2019-05-10T06:36:21.973Z,16.20
2019-05-10T06:38:57.676Z,16.70
2019-05-10T06:41:33.600Z,15.53
2019-05-10T06:44:07.527Z,14.60
2019-05-10T06:46:41.200Z,14.18
2019-05-10T06:49:18.351Z,14.23
2019-05-10T06:51:52.404Z,12.73
2019-05-10T06:54:25.977Z,13.40
2019-05-10T06:57:00.793Z,14.30
2019-05-10T06:59:35.110Z,12.57
2019-05-10T07:02:08.780Z,12.77
2019-05-10T07:04:42.375Z,13.40
2019-05-10T07:07:33.140Z,13.70
2019-05-10T07:10:17.901Z,12.98
2019-05-10T07:12:29.971Z,13.20
2019-05-10T07:15:03.414Z,12.07
2019-05-10T07:17:43.626Z,12.27
2019-05-10T07:20:12.709Z,12.00
2019-05-10T07:22:47.085Z,11.25
2019-05-10T07:25:20.615Z,11.12
2019-05-10T07:27:53.932Z,10.97
2019-05-10T07:30:41.180Z,11.40
2019-05-10T07:33:14.783Z,11.05
2019-05-10T07:35:48.623Z,11.57
2019-05-10T07:38:30.839Z,10.72
2019-05-10T07:40:59.546Z,11.33
2019-05-10T07:43:34.508Z,10.83
2019-05-10T07:46:09.875Z,10.97
2019-05-10T07:48:47.299Z,11.25
2019-05-10T07:51:22.736Z,10.88
2019-05-10T07:53:57.107Z,11.13
2019-05-10T07:56:30.221Z,11.33
2019-05-10T07:59:07.251Z,10.18
2019-05-10T08:01:40.630Z,11.30
2019-05-10T08:04:19.711Z,10.70
2019-05-10T08:06:52.309Z,11.43
2019-05-10T08:09:26.011Z,10.70
2019-05-10T08:12:03.262Z,10.27
2019-05-10T08:14:34.580Z,10.73
2019-05-10T08:17:09.598Z,11.27
2019-05-10T08:19:44.128Z,11.28
2019-05-10T08:22:22.838Z,10.95
2019-05-10T08:24:56.408Z,11.10
2019-05-10T08:27:32.478Z,11.13
2019-05-10T08:30:22.653Z,12.33
2019-05-10T08:32:44.926Z,11.37
2019-05-10T08:35:18.883Z,10.83
2019-05-10T08:37:54.230Z,11.37
2019-05-10T08:40:34.093Z,12.00
2019-05-10T08:43:06.664Z,10.93
2019-05-10T08:45:38.667Z,12.20
2019-05-10T08:51:07.486Z,11.50
2019-05-10T08:53:41.909Z,11.77
2019-05-10T08:56:21.085Z,13.33
2019-05-10T08:58:53.358Z,12.85
2019-05-10T09:01:30.130Z,12.65
2019-05-10T09:04:06.453Z,12.50
2019-05-10T09:06:41.892Z,12.03
2019-05-10T09:09:14.092Z,12.40
2019-05-10T09:11:48.062Z,12.40
2019-05-10T09:14:24.187Z,11.83
2019-05-10T09:17:01.668Z,12.47
2019-05-10T09:19:40.932Z,12.67
2019-05-10T09:22:15.980Z,13.05
2019-05-10T09:24:54.831Z,13.32
2019-05-10T09:30:54.117Z,12.33
2019-05-10T09:33:17.173Z,12.83
2019-05-10T09:35:59.262Z,13.75
2019-05-10T09:38:39.254Z,13.10
2019-05-10T09:41:12.837Z,13.13
2019-05-10T09:44:00.256Z,13.10
2019-05-10T09:46:43.450Z,12.63
2019-05-10T09:49:25.968Z,13.38
2019-05-10T09:52:12.405Z,13.40
2019-05-10T09:54:44.515Z,14.13
2019-05-10T09:57:20.205Z,13.90
2019-05-10T09:59:57.259Z,13.90
2019-05-10T10:02:37.275Z,14.75
2019-05-10T10:05:13.912Z,13.83
2019-05-10T10:07:52.449Z,15.38
2019-05-10T10:10:32.442Z,14.70
2019-05-10T10:13:13.475Z,15.33
2019-05-10T10:15:52.046Z,14.70
2019-05-10T10:21:30.565Z,15.30
2019-05-10T10:24:19.990Z,15.60
2019-05-10T10:27:07.278Z,16.50
2019-05-10T10:29:47.421Z,15.80
2019-05-10T10:32:24.653Z,15.38
2019-05-10T10:34:59.099Z,16.32
2019-05-10T10:37:38.095Z,15.50
2019-05-10T10:40:18.346Z,15.40
2019-05-10T10:42:58.174Z,17.35
2019-05-10T10:45:40.997Z,18.15
2019-05-10T10:48:38.045Z,19.25
2019-05-10T10:51:18.033Z,17.77
2019-05-10T10:54:09.073Z,19.90
2019-05-10T10:56:48.928Z,19.27
2019-05-10T10:59:32.913Z,20.02
2019-05-10T11:04:51.772Z,18.97
2019-05-10T11:07:38.521Z,18.53
2019-05-10T11:10:18.663Z,18.50
2019-05-10T11:12:47.585Z,19.50
2019-05-10T11:15:28.987Z,18.12
2019-05-10T11:18:03.835Z,18.67
2019-05-10T11:20:53.930Z,17.97
2019-05-10T11:23:34.158Z,18.85
2019-05-10T11:26:05.422Z,17.87
2019-05-10T11:28:44.018Z,18.47
2019-05-10T11:31:21.359Z,18.10
2019-05-10T11:34:06.061Z,17.92
2019-05-10T11:36:46.025Z,18.20
2019-05-10T11:42:37.390Z,17.80
2019-05-10T11:45:16.050Z,17.93
2019-05-10T11:48:02.851Z,17.67
2019-05-10T11:50:44.492Z,18.50
2019-05-10T11:53:25.820Z,17.50
2019-05-10T11:56:02.334Z,17.25
2019-05-10T11:58:45.936Z,16.27
2019-05-10T12:01:26.338Z,17.27
2019-05-10T12:04:28.785Z,15.85
2019-05-10T12:07:12.857Z,17.17
2019-05-10T12:09:53.424Z,16.97
2019-05-10T12:12:44.847Z,17.57
2019-05-10T12:15:06.539Z,17.62
2019-05-10T12:17:47.619Z,17.07
2019-05-10T12:20:30.328Z,17.53
2019-05-10T12:23:03.204Z,17.07
2019-05-10T12:26:20.248Z,17.05
2019-05-10T12:28:28.886Z,16.77
2019-05-10T12:31:07.489Z,17.17
2019-05-10T12:33:45.170Z,17.23
2019-05-10T12:36:25.437Z,17.33
2019-05-10T12:38:58.847Z,17.40
2019-05-10T12:41:39.648Z,18.00
2019-05-10T12:44:12.188Z,16.87
2019-05-10T12:46:55.319Z,16.20
2019-05-10T12:49:36.160Z,17.70
2019-05-10T12:52:14.286Z,19.70
2019-05-10T12:54:47.204Z,17.27
2019-05-10T12:57:24.148Z,17.33
2019-05-10T12:59:59.054Z,17.73
2019-05-10T13:02:37.894Z,18.12
2019-05-10T13:05:30.818Z,17.87
2019-05-10T13:08:23.079Z,16.60
2019-05-10T13:11:24.686Z,17.42
2019-05-10T13:14:29.111Z,16.53
2019-05-10T13:17:28.564Z,17.73
2019-05-10T13:20:04.906Z,16.47
2019-05-10T13:22:51.720Z,16.43
2019-05-10T13:25:37.550Z,17.67
2019-05-10T13:28:11.940Z,17.30
2019-05-10T13:30:48.128Z,16.17
2019-05-10T13:33:29.026Z,17.13
2019-05-10T13:36:01.987Z,15.68
2019-05-10T13:38:37.020Z,16.42
2019-05-10T13:41:17.477Z,16.77
2019-05-10T13:43:49.742Z,15.50
2019-05-10T13:46:33.460Z,16.13
2019-05-10T13:49:09.655Z,15.80
2019-05-10T13:51:53.273Z,15.00
2019-05-10T13:54:31.182Z,15.30
2019-05-10T13:57:17.096Z,15.68
2019-05-10T13:59:54.998Z,15.37
2019-05-10T14:02:32.773Z,15.63
2019-05-10T14:05:06.405Z,15.57
2019-05-10T14:07:49.681Z,14.90
2019-05-10T14:10:23.286Z,14.90
2019-05-10T14:13:01.947Z,15.47
2019-05-10T14:15:31.231Z,15.90
2019-05-10T14:18:05.621Z,14.23
2019-05-10T14:20:40.807Z,14.63
2019-05-10T14:23:17.792Z,14.97
2019-05-10T14:25:50.318Z,15.30
2019-05-10T14:28:25.369Z,13.93
2019-05-10T14:31:05.041Z,14.15
2019-05-10T14:33:39.455Z,15.63
2019-05-10T14:36:14.967Z,14.30
2019-05-10T14:38:54.047Z,13.47
2019-05-10T14:41:25.601Z,13.97
2019-05-10T14:44:00.140Z,13.73
2019-05-10T14:46:34.562Z,14.13
2019-05-10T14:49:15.541Z,13.33
2019-05-10T14:52:27.855Z,13.77
2019-05-10T14:55:34.440Z,13.10
2019-05-10T14:58:10.644Z,13.35
2019-05-10T15:01:03.132Z,12.90
2019-05-10T15:03:51.239Z,13.87
2019-05-10T15:06:30.855Z,13.87
2019-05-10T15:09:05.042Z,14.30
2019-05-10T15:11:40.101Z,13.43
2019-05-10T15:14:15.198Z,13.57
2019-05-10T15:17:01.300Z,13.77
2019-05-10T15:19:41.878Z,14.15
2019-05-10T15:22:18.426Z,14.57
2019-05-10T15:24:59.798Z,14.15
2019-05-10T15:27:34.767Z,14.10
2019-05-10T15:30:14.272Z,14.25
2019-05-10T15:32:49.617Z,14.23
2019-05-10T15:35:30.244Z,14.67
2019-05-10T15:38:05.525Z,15.43
2019-05-10T15:40:44.490Z,15.27
2019-05-10T15:43:18.956Z,16.10
2019-05-10T15:45:55.052Z,15.95
2019-05-10T15:48:41.283Z,17.53
2019-05-10T15:51:11.306Z,17.87
2019-05-10T15:54:04.963Z,18.77
2019-05-10T15:56:42.126Z,18.30
2019-05-10T15:59:28.396Z,19.60
2019-05-10T16:02:08.637Z,19.62
2019-05-10T16:04:44.769Z,19.87
2019-05-10T16:07:37.785Z,19.93
2019-05-10T16:10:14.239Z,20.60
2019-05-10T16:12:50.267Z,21.33
2019-05-10T16:15:26.735Z,20.83
2019-05-10T16:18:03.067Z,20.55
2019-05-10T16:20:38.883Z,21.85
2019-05-10T16:23:11.924Z,20.90
2019-05-10T16:25:48.555Z,23.27
2019-05-10T16:28:22.977Z,22.87
2019-05-10T16:30:56.906Z,24.47
2019-05-10T16:33:31.571Z,25.23
2019-05-10T16:36:08.325Z,23.35
2019-05-10T16:38:41.273Z,23.77
2019-05-10T16:41:17.344Z,24.77
2019-05-10T16:43:51.740Z,23.57
2019-05-10T16:46:26.060Z,24.67
2019-05-10T16:49:00.065Z,23.43
2019-05-10T16:51:49.637Z,24.00
2019-05-10T16:54:31.151Z,22.23
2019-05-10T16:57:11.644Z,23.83
2019-05-10T16:59:47.962Z,23.63
2019-05-10T17:02:22.405Z,22.70
2019-05-10T17:05:09.469Z,24.53
2019-05-10T17:07:41.888Z,24.40
2019-05-10T17:10:19.593Z,23.83
2019-05-10T17:13:20.030Z,23.33
2019-05-10T17:15:54.219Z,22.67
2019-05-10T17:18:29.775Z,22.90
2019-05-10T17:21:05.033Z,23.30
2019-05-10T17:23:41.583Z,24.60
2019-05-10T17:26:14.704Z,23.87
2019-05-10T17:28:49.007Z,24.10
2019-05-10T17:31:23.130Z,25.37
2019-05-10T17:34:00.930Z,23.07
2019-05-10T17:36:36.905Z,24.50
2019-05-10T17:39:12.228Z,24.97
2019-05-10T17:41:46.263Z,27.63
2019-05-10T17:44:23.150Z,26.13
2019-05-10T17:46:58.347Z,27.00
2019-05-10T17:49:32.344Z,28.30
2019-05-10T17:52:09.548Z,27.80
2019-05-10T17:54:46.494Z,26.90
2019-05-10T17:57:21.072Z,29.80
2019-05-10T17:59:55.520Z,29.18
2019-05-10T18:02:31.008Z,28.50
2019-05-10T18:05:06.075Z,27.67
2019-05-10T18:07:40.275Z,29.50
2019-05-10T18:10:14.811Z,29.00
2019-05-10T18:12:48.758Z,30.73
2019-05-10T18:15:27.745Z,31.73
2019-05-10T18:18:02.670Z,31.20
2019-05-10T18:20:40.969Z,31.48
2019-05-10T18:23:16.094Z,30.85
2019-05-10T18:25:46.277Z,34.27
2019-05-10T18:28:21.570Z,33.87
2019-05-10T18:30:55.721Z,35.60
2019-05-10T18:33:29.406Z,34.20
2019-05-10T18:36:03.526Z,34.97
2019-05-10T18:38:39.000Z,34.10
2019-05-10T18:41:14.933Z,35.30
2019-05-10T18:43:48.976Z,36.20
2019-05-10T18:46:24.576Z,38.13
2019-05-10T18:49:04.104Z,36.88
2019-05-10T18:51:38.573Z,37.45
2019-05-10T18:54:14.022Z,35.78
2019-05-10T18:56:49.784Z,36.97
2019-05-10T18:59:29.026Z,38.07
2019-05-10T19:02:03.310Z,37.60
2019-05-10T19:04:36.749Z,37.63
2019-05-10T19:07:14.972Z,37.17
2019-05-10T19:09:49.123Z,37.37
2019-05-10T19:12:23.673Z,41.97
2019-05-10T19:15:02.199Z,38.70
2019-05-10T19:17:40.358Z,37.80
2019-05-10T19:20:16.149Z,39.80
2019-05-10T19:22:50.243Z,39.53
2019-05-10T19:25:24.929Z,39.13
2019-05-10T19:27:59.266Z,39.07
2019-05-10T19:30:38.163Z,38.00
2019-05-10T19:33:12.482Z,38.83
2019-05-10T19:35:46.745Z,39.63
2019-05-10T19:38:20.941Z,39.83
2019-05-10T19:41:00.401Z,40.00
2019-05-10T19:43:37.244Z,39.40
2019-05-10T19:46:11.837Z,39.73
2019-05-10T19:48:48.244Z,39.87
2019-05-10T19:51:57.508Z,37.50
2019-05-10T19:54:32.798Z,36.50
2019-05-10T19:57:15.331Z,38.57
2019-05-10T19:59:46.603Z,39.43
2019-05-10T20:02:17.958Z,39.38
2019-05-10T20:04:54.017Z,38.55
2019-05-10T20:07:44.085Z,38.07
2019-05-10T20:10:07.867Z,37.95
2019-05-10T20:12:45.679Z,36.83
2019-05-10T20:15:20.919Z,37.93
2019-05-10T20:17:54.531Z,37.77
2019-05-10T20:20:29.189Z,38.37
2019-05-10T20:23:04.072Z,36.37
2019-05-10T20:25:40.486Z,38.02
2019-05-10T20:28:19.780Z,37.58
2019-05-10T20:30:54.440Z,37.73
2019-05-10T20:33:29.803Z,37.00
2019-05-10T20:36:05.764Z,37.23
2019-05-10T20:38:39.962Z,37.97
2019-05-10T20:41:16.420Z,36.90
2019-05-10T20:43:50.370Z,35.95
2019-05-10T20:46:24.842Z,35.77
2019-05-10T20:48:58.927Z,36.07
2019-05-10T20:51:32.870Z,35.93
2019-05-10T20:54:07.160Z,37.40
2019-05-10T20:56:42.140Z,35.13
2019-05-10T20:59:16.395Z,35.70
2019-05-10T21:01:54.522Z,33.97
2019-05-10T21:04:28.373Z,32.30
2019-05-10T21:07:02.005Z,31.93
2019-05-10T21:09:36.253Z,31.80
2019-05-10T21:12:10.121Z,32.50
2019-05-10T21:14:45.109Z,30.83
2019-05-10T21:17:18.803Z,32.33
2019-05-10T21:19:52.350Z,32.20
2019-05-10T21:22:26.163Z,31.87
2019-05-10T21:25:21.235Z,30.80
2019-05-10T21:27:54.957Z,31.90
2019-05-10T21:30:28.665Z,31.87
2019-05-10T21:33:02.745Z,31.17
2019-05-10T21:35:37.357Z,31.93
2019-05-10T21:38:12.636Z,30.57
2019-05-10T21:40:46.330Z,30.67
2019-05-10T21:43:21.249Z,31.17
2019-05-10T21:45:56.066Z,30.87
2019-05-10T21:48:31.420Z,31.63
2019-05-10T21:51:07.428Z,32.87
2019-05-10T21:53:42.755Z,32.80
2019-05-10T21:56:18.236Z,32.40
2019-05-10T21:58:52.150Z,33.63
2019-05-10T22:01:48.384Z,34.37
2019-05-10T22:04:22.108Z,32.60
2019-05-10T22:06:55.924Z,31.93
2019-05-10T22:09:30.128Z,32.40
2019-05-10T22:12:05.894Z,34.30
2019-05-10T22:14:42.779Z,31.67
2019-05-10T22:17:16.522Z,32.33
2019-05-10T22:19:50.668Z,33.27
2019-05-10T22:22:26.530Z,32.10
2019-05-10T22:25:00.561Z,34.27
2019-05-10T22:27:34.401Z,33.27
2019-05-10T22:30:12.508Z,35.00
2019-05-10T22:32:47.713Z,35.30
2019-05-10T22:35:21.847Z,33.33
2019-05-10T22:37:56.322Z,36.45
2019-05-10T22:40:30.560Z,34.43
2019-05-10T22:43:04.937Z,34.40
2019-05-10T22:45:38.897Z,36.83
2019-05-10T22:48:13.951Z,35.63
2019-05-10T22:50:48.540Z,36.27
2019-05-10T22:53:23.110Z,33.93
2019-05-10T22:55:57.586Z,36.95
2019-05-10T22:58:32.209Z,39.20
2019-05-10T23:01:08.281Z,38.33
2019-05-10T23:03:43.123Z,38.50
2019-05-10T23:06:18.048Z,36.97
2019-05-10T23:08:52.141Z,37.10
2019-05-10T23:11:26.634Z,34.70
2019-05-10T23:14:02.303Z,35.37
2019-05-10T23:16:35.754Z,38.00
2019-05-10T23:19:10.057Z,35.27
2019-05-10T23:21:44.704Z,37.43
2019-05-10T23:24:18.923Z,34.80
2019-05-10T23:26:56.017Z,36.10
2019-05-10T23:29:31.789Z,36.67
2019-05-10T23:32:08.154Z,34.70
2019-05-10T23:34:42.063Z,33.17
2019-05-10T23:37:16.231Z,33.23
2019-05-10T23:39:53.344Z,28.57
2019-05-10T23:42:33.669Z,28.27
2019-05-10T23:45:08.431Z,28.00
2019-05-10T23:47:45.476Z,27.58
2019-05-10T23:50:20.665Z,28.42
2019-05-10T23:52:54.938Z,27.73
2019-05-10T23:55:31.805Z,29.03
2019-05-10T23:58:07.379Z,26.60
